sensor_id;sensor_type;location;lat;lon;timestamp;temperature;humidity
7218;DHT22;3650;53.580;10.094;2022-11-15T00:00:34;9.30;92.60
7218;DHT22;3650;53.580;10.094;2022-11-15T00:03:00;9.30;92.50
7218;DHT22;3650;53.580;10.094;2022-11-15T00:05:29;9.30;92.40
7218;DHT22;3650;53.580;10.094;2022-11-15T00:08:00;9.30;92.50
7218;DHT22;3650;53.580;10.094;2022-11-15T00:10:27;9.30;92.50
7218;DHT22;3650;53.580;10.094;2022-11-15T00:12:54;9.20;92.50
7218;DHT22;3650;53.580;10.094;2022-11-15T00:15:22;9.20;92.50
7218;DHT22;3650;53.580;10.094;2022-11-15T00:18:03;9.20;92.40
7218;DHT22;3650;53.580;10.094;2022-11-15T00:20:31;9.20;92.20
7218;DHT22;3650;53.580;10.094;2022-11-15T00:22:57;9.10;92.00
7218;DHT22;3650;53.580;10.094;2022-11-15T00:25:24;9.10;92.20
7218;DHT22;3650;53.580;10.094;2022-11-15T00:27:55;9.10;92.50
7218;DHT22;3650;53.580;10.094;2022-11-15T00:30:22;9.10;92.70
7218;DHT22;3650;53.580;10.094;2022-11-15T00:33:06;9.10;92.50
7218;DHT22;3650;53.580;10.094;2022-11-15T00:35:34;9.00;92.40
7218;DHT22;3650;53.580;10.094;2022-11-15T00:38:02;9.00;92.40
7218;DHT22;3650;53.580;10.094;2022-11-15T00:40:29;9.00;92.70
7218;DHT22;3650;53.580;10.094;2022-11-15T00:42:56;9.00;93.00
7218;DHT22;3650;53.580;10.094;2022-11-15T00:45:23;8.90;92.90
7218;DHT22;3650;53.580;10.094;2022-11-15T00:47:54;8.90;92.60
7218;DHT22;3650;53.580;10.094;2022-11-15T00:50:22;8.90;93.10
7218;DHT22;3650;53.580;10.094;2022-11-15T00:52:48;8.90;93.50
7218;DHT22;3650;53.580;10.094;2022-11-15T00:55:16;8.90;93.80
7218;DHT22;3650;53.580;10.094;2022-11-15T00:57:43;8.90;94.00
7218;DHT22;3650;53.580;10.094;2022-11-15T01:00:11;8.90;94.10
7218;DHT22;3650;53.580;10.094;2022-11-15T01:02:38;8.90;94.10
7218;DHT22;3650;53.580;10.094;2022-11-15T01:05:06;8.90;93.90
7218;DHT22;3650;53.580;10.094;2022-11-15T01:07:34;8.90;93.70
7218;DHT22;3650;53.580;10.094;2022-11-15T01:10:01;8.90;93.30
7218;DHT22;3650;53.580;10.094;2022-11-15T01:12:28;8.80;93.10
7218;DHT22;3650;53.580;10.094;2022-11-15T01:14:54;8.70;93.10
7218;DHT22;3650;53.580;10.094;2022-11-15T01:17:21;8.70;93.50
7218;DHT22;3650;53.580;10.094;2022-11-15T01:19:49;8.70;93.70
7218;DHT22;3650;53.580;10.094;2022-11-15T01:22:16;8.60;93.90
7218;DHT22;3650;53.580;10.094;2022-11-15T01:24:44;8.60;94.10
7218;DHT22;3650;53.580;10.094;2022-11-15T01:27:11;8.60;94.00
7218;DHT22;3650;53.580;10.094;2022-11-15T01:29:38;8.60;94.40
7218;DHT22;3650;53.580;10.094;2022-11-15T01:32:04;8.60;94.40
7218;DHT22;3650;53.580;10.094;2022-11-15T01:34:33;8.50;94.30
7218;DHT22;3650;53.580;10.094;2022-11-15T01:37:00;8.50;94.50
7218;DHT22;3650;53.580;10.094;2022-11-15T01:39:27;8.50;94.60
7218;DHT22;3650;53.580;10.094;2022-11-15T01:41:55;8.50;94.80
7218;DHT22;3650;53.580;10.094;2022-11-15T01:44:43;8.50;94.70
7218;DHT22;3650;53.580;10.094;2022-11-15T01:47:12;8.40;94.30
7218;DHT22;3650;53.580;10.094;2022-11-15T01:49:46;8.30;94.20
7218;DHT22;3650;53.580;10.094;2022-11-15T01:52:18;8.30;94.30
7218;DHT22;3650;53.580;10.094;2022-11-15T01:54:46;8.30;94.40
7218;DHT22;3650;53.580;10.094;2022-11-15T01:57:14;8.20;94.50
7218;DHT22;3650;53.580;10.094;2022-11-15T01:59:43;8.20;94.70
7218;DHT22;3650;53.580;10.094;2022-11-15T02:02:10;8.20;94.70
7218;DHT22;3650;53.580;10.094;2022-11-15T02:04:45;8.20;94.60
7218;DHT22;3650;53.580;10.094;2022-11-15T02:07:15;8.20;95.00
7218;DHT22;3650;53.580;10.094;2022-11-15T02:09:43;8.20;95.00
7218;DHT22;3650;53.580;10.094;2022-11-15T02:12:15;8.20;94.80
7218;DHT22;3650;53.580;10.094;2022-11-15T02:14:46;8.20;95.00
7218;DHT22;3650;53.580;10.094;2022-11-15T02:17:29;8.20;94.80
7218;DHT22;3650;53.580;10.094;2022-11-15T02:20:25;8.20;94.30
7218;DHT22;3650;53.580;10.094;2022-11-15T02:23:11;8.10;94.20
7218;DHT22;3650;53.580;10.094;2022-11-15T02:25:45;8.10;94.30
7218;DHT22;3650;53.580;10.094;2022-11-15T02:28:38;8.10;94.10
7218;DHT22;3650;53.580;10.094;2022-11-15T02:31:19;8.00;93.80
7218;DHT22;3650;53.580;10.094;2022-11-15T02:33:53;8.00;93.60
7218;DHT22;3650;53.580;10.094;2022-11-15T02:36:29;7.80;93.30
7218;DHT22;3650;53.580;10.094;2022-11-15T02:39:05;7.80;93.80
7218;DHT22;3650;53.580;10.094;2022-11-15T02:41:38;7.90;94.40
7218;DHT22;3650;53.580;10.094;2022-11-15T02:44:13;7.80;94.80
7218;DHT22;3650;53.580;10.094;2022-11-15T02:46:45;7.80;94.70
7218;DHT22;3650;53.580;10.094;2022-11-15T02:49:45;7.80;94.80
7218;DHT22;3650;53.580;10.094;2022-11-15T02:52:15;7.80;94.60
7218;DHT22;3650;53.580;10.094;2022-11-15T02:54:42;7.70;94.10
7218;DHT22;3650;53.580;10.094;2022-11-15T02:57:13;7.70;94.00
7218;DHT22;3650;53.580;10.094;2022-11-15T03:00:02;7.70;94.40
7218;DHT22;3650;53.580;10.094;2022-11-15T03:02:54;7.70;94.60
7218;DHT22;3650;53.580;10.094;2022-11-15T03:05:29;7.70;94.90
7218;DHT22;3650;53.580;10.094;2022-11-15T03:08:05;7.70;95.10
7218;DHT22;3650;53.580;10.094;2022-11-15T03:10:41;7.70;94.90
7218;DHT22;3650;53.580;10.094;2022-11-15T03:13:18;7.80;95.20
7218;DHT22;3650;53.580;10.094;2022-11-15T03:15:55;7.80;95.50
7218;DHT22;3650;53.580;10.094;2022-11-15T03:18:31;7.80;95.60
7218;DHT22;3650;53.580;10.094;2022-11-15T03:21:00;7.80;94.90
7218;DHT22;3650;53.580;10.094;2022-11-15T03:23:30;7.80;94.10
7218;DHT22;3650;53.580;10.094;2022-11-15T03:25:58;7.80;94.40
7218;DHT22;3650;53.580;10.094;2022-11-15T03:28:30;7.80;94.60
7218;DHT22;3650;53.580;10.094;2022-11-15T03:30:59;7.80;94.70
7218;DHT22;3650;53.580;10.094;2022-11-15T03:33:54;7.80;94.90
7218;DHT22;3650;53.580;10.094;2022-11-15T03:36:23;7.90;95.10
7218;DHT22;3650;53.580;10.094;2022-11-15T03:38:53;7.90;95.10
7218;DHT22;3650;53.580;10.094;2022-11-15T03:41:24;7.80;95.00
7218;DHT22;3650;53.580;10.094;2022-11-15T03:43:59;7.80;94.80
7218;DHT22;3650;53.580;10.094;2022-11-15T03:46:33;7.80;94.80
7218;DHT22;3650;53.580;10.094;2022-11-15T03:49:09;7.80;94.90
7218;DHT22;3650;53.580;10.094;2022-11-15T03:51:38;7.80;94.90
7218;DHT22;3650;53.580;10.094;2022-11-15T03:54:05;7.80;94.60
7218;DHT22;3650;53.580;10.094;2022-11-15T03:56:41;7.80;94.40
7218;DHT22;3650;53.580;10.094;2022-11-15T03:59:08;7.70;94.40
7218;DHT22;3650;53.580;10.094;2022-11-15T04:01:36;7.70;94.90
7218;DHT22;3650;53.580;10.094;2022-11-15T04:04:02;7.70;94.80
7218;DHT22;3650;53.580;10.094;2022-11-15T04:06:33;7.70;94.90
7218;DHT22;3650;53.580;10.094;2022-11-15T04:09:00;7.60;94.80
7218;DHT22;3650;53.580;10.094;2022-11-15T04:11:27;7.60;95.10
7218;DHT22;3650;53.580;10.094;2022-11-15T04:13:53;7.70;95.20
7218;DHT22;3650;53.580;10.094;2022-11-15T04:16:26;7.60;94.90
7218;DHT22;3650;53.580;10.094;2022-11-15T04:18:53;7.60;95.30
7218;DHT22;3650;53.580;10.094;2022-11-15T04:21:35;7.70;95.80
7218;DHT22;3650;53.580;10.094;2022-11-15T04:24:19;7.70;95.90
7218;DHT22;3650;53.580;10.094;2022-11-15T04:26:46;7.70;95.70
7218;DHT22;3650;53.580;10.094;2022-11-15T04:29:12;7.70;95.80
7218;DHT22;3650;53.580;10.094;2022-11-15T04:32:06;7.70;96.00
7218;DHT22;3650;53.580;10.094;2022-11-15T04:34:35;7.70;96.20
7218;DHT22;3650;53.580;10.094;2022-11-15T04:37:10;7.80;96.40
7218;DHT22;3650;53.580;10.094;2022-11-15T04:39:41;7.80;96.00
7218;DHT22;3650;53.580;10.094;2022-11-15T04:42:08;7.80;96.10
7218;DHT22;3650;53.580;10.094;2022-11-15T04:44:35;7.80;96.00
7218;DHT22;3650;53.580;10.094;2022-11-15T04:47:02;7.80;96.10
7218;DHT22;3650;53.580;10.094;2022-11-15T04:49:29;7.80;95.80
7218;DHT22;3650;53.580;10.094;2022-11-15T04:51:58;7.80;95.60
7218;DHT22;3650;53.580;10.094;2022-11-15T04:54:26;7.80;95.60
7218;DHT22;3650;53.580;10.094;2022-11-15T04:56:53;7.70;95.60
7218;DHT22;3650;53.580;10.094;2022-11-15T04:59:19;7.80;96.00
7218;DHT22;3650;53.580;10.094;2022-11-15T05:01:53;7.80;96.30
7218;DHT22;3650;53.580;10.094;2022-11-15T05:04:20;7.80;96.60
7218;DHT22;3650;53.580;10.094;2022-11-15T05:06:47;7.80;96.80
7218;DHT22;3650;53.580;10.094;2022-11-15T05:09:16;7.90;97.00
7218;DHT22;3650;53.580;10.094;2022-11-15T05:11:45;7.90;97.20
7218;DHT22;3650;53.580;10.094;2022-11-15T05:14:18;7.90;97.20
7218;DHT22;3650;53.580;10.094;2022-11-15T05:16:45;7.90;97.10
7218;DHT22;3650;53.580;10.094;2022-11-15T05:19:12;8.00;97.30
7218;DHT22;3650;53.580;10.094;2022-11-15T05:21:40;8.00;97.50
7218;DHT22;3650;53.580;10.094;2022-11-15T05:24:09;8.10;97.70
7218;DHT22;3650;53.580;10.094;2022-11-15T05:26:36;8.10;97.90
7218;DHT22;3650;53.580;10.094;2022-11-15T05:29:08;8.20;98.30
7218;DHT22;3650;53.580;10.094;2022-11-15T05:31:43;8.20;98.20
7218;DHT22;3650;53.580;10.094;2022-11-15T05:34:10;8.20;97.40
7218;DHT22;3650;53.580;10.094;2022-11-15T05:36:38;8.20;97.30
7218;DHT22;3650;53.580;10.094;2022-11-15T05:39:07;8.20;97.70
7218;DHT22;3650;53.580;10.094;2022-11-15T05:41:37;8.20;97.90
7218;DHT22;3650;53.580;10.094;2022-11-15T05:44:09;8.30;98.10
7218;DHT22;3650;53.580;10.094;2022-11-15T05:46:38;8.30;98.00
7218;DHT22;3650;53.580;10.094;2022-11-15T05:49:07;8.30;98.00
7218;DHT22;3650;53.580;10.094;2022-11-15T05:51:46;8.30;98.10
7218;DHT22;3650;53.580;10.094;2022-11-15T05:54:23;8.30;98.10
7218;DHT22;3650;53.580;10.094;2022-11-15T05:56:51;8.30;98.10
7218;DHT22;3650;53.580;10.094;2022-11-15T05:59:19;8.30;98.30
7218;DHT22;3650;53.580;10.094;2022-11-15T06:01:46;8.30;98.40
7218;DHT22;3650;53.580;10.094;2022-11-15T06:04:13;8.30;98.80
7218;DHT22;3650;53.580;10.094;2022-11-15T06:06:48;8.30;98.80
7218;DHT22;3650;53.580;10.094;2022-11-15T06:09:14;8.30;99.00
7218;DHT22;3650;53.580;10.094;2022-11-15T06:11:50;8.40;99.40
7218;DHT22;3650;53.580;10.094;2022-11-15T06:14:16;8.40;99.70
7218;DHT22;3650;53.580;10.094;2022-11-15T06:16:45;8.50;99.90
7218;DHT22;3650;53.580;10.094;2022-11-15T06:19:11;8.50;99.90
7218;DHT22;3650;53.580;10.094;2022-11-15T06:21:43;8.60;99.90
7218;DHT22;3650;53.580;10.094;2022-11-15T06:24:10;8.60;99.90
7218;DHT22;3650;53.580;10.094;2022-11-15T06:26:37;8.60;99.90
7218;DHT22;3650;53.580;10.094;2022-11-15T06:29:04;8.70;99.90
7218;DHT22;3650;53.580;10.094;2022-11-15T06:31:31;8.80;99.90
7218;DHT22;3650;53.580;10.094;2022-11-15T06:34:10;8.80;99.90
7218;DHT22;3650;53.580;10.094;2022-11-15T06:36:38;8.90;99.90
7218;DHT22;3650;53.580;10.094;2022-11-15T06:39:05;8.90;99.90
7218;DHT22;3650;53.580;10.094;2022-11-15T06:41:37;8.90;99.70
7218;DHT22;3650;53.580;10.094;2022-11-15T06:44:04;9.00;99.40
7218;DHT22;3650;53.580;10.094;2022-11-15T06:46:31;9.00;99.10
7218;DHT22;3650;53.580;10.094;2022-11-15T06:48:57;9.00;98.80
7218;DHT22;3650;53.580;10.094;2022-11-15T06:51:26;9.10;98.60
7218;DHT22;3650;53.580;10.094;2022-11-15T06:54:16;9.10;98.50
7218;DHT22;3650;53.580;10.094;2022-11-15T06:56:43;9.10;98.20
7218;DHT22;3650;53.580;10.094;2022-11-15T06:59:10;9.20;98.00
7218;DHT22;3650;53.580;10.094;2022-11-15T07:01:37;9.10;97.70
7218;DHT22;3650;53.580;10.094;2022-11-15T07:04:04;9.20;97.50
7218;DHT22;3650;53.580;10.094;2022-11-15T07:06:32;9.20;97.30
7218;DHT22;3650;53.580;10.094;2022-11-15T07:08:58;9.20;97.00
7218;DHT22;3650;53.580;10.094;2022-11-15T07:11:25;9.20;96.90
7218;DHT22;3650;53.580;10.094;2022-11-15T07:13:52;9.30;96.90
7218;DHT22;3650;53.580;10.094;2022-11-15T07:16:19;9.30;96.90
7218;DHT22;3650;53.580;10.094;2022-11-15T07:18:46;9.30;97.20
7218;DHT22;3650;53.580;10.094;2022-11-15T07:21:12;9.30;96.80
7218;DHT22;3650;53.580;10.094;2022-11-15T07:23:49;9.30;96.80
7218;DHT22;3650;53.580;10.094;2022-11-15T07:26:15;9.40;96.70
7218;DHT22;3650;53.580;10.094;2022-11-15T07:28:42;9.40;96.50
7218;DHT22;3650;53.580;10.094;2022-11-15T07:31:09;9.40;96.20
7218;DHT22;3650;53.580;10.094;2022-11-15T07:33:36;9.40;96.10
7218;DHT22;3650;53.580;10.094;2022-11-15T07:36:04;9.40;96.10
7218;DHT22;3650;53.580;10.094;2022-11-15T07:38:31;9.50;96.10
7218;DHT22;3650;53.580;10.094;2022-11-15T07:41:01;9.40;96.10
7218;DHT22;3650;53.580;10.094;2022-11-15T07:43:28;9.50;96.00
7218;DHT22;3650;53.580;10.094;2022-11-15T07:45:55;9.50;95.80
7218;DHT22;3650;53.580;10.094;2022-11-15T07:48:22;9.50;95.80
7218;DHT22;3650;53.580;10.094;2022-11-15T07:50:49;9.50;95.80
7218;DHT22;3650;53.580;10.094;2022-11-15T07:53:16;9.50;95.70
7218;DHT22;3650;53.580;10.094;2022-11-15T07:55:43;9.50;95.60
7218;DHT22;3650;53.580;10.094;2022-11-15T07:58:13;9.50;95.60
7218;DHT22;3650;53.580;10.094;2022-11-15T08:00:39;9.60;95.50
7218;DHT22;3650;53.580;10.094;2022-11-15T08:03:08;9.60;95.50
7218;DHT22;3650;53.580;10.094;2022-11-15T08:05:35;9.60;95.50
7218;DHT22;3650;53.580;10.094;2022-11-15T08:08:10;9.60;95.50
7218;DHT22;3650;53.580;10.094;2022-11-15T08:10:37;9.60;95.50
7218;DHT22;3650;53.580;10.094;2022-11-15T08:13:06;9.60;95.40
7218;DHT22;3650;53.580;10.094;2022-11-15T08:15:36;9.60;95.40
7218;DHT22;3650;53.580;10.094;2022-11-15T08:18:06;9.70;95.40
7218;DHT22;3650;53.580;10.094;2022-11-15T08:20:33;9.70;95.40
7218;DHT22;3650;53.580;10.094;2022-11-15T08:23:01;9.70;95.40
7218;DHT22;3650;53.580;10.094;2022-11-15T08:25:30;9.70;95.40
7218;DHT22;3650;53.580;10.094;2022-11-15T08:27:59;9.70;95.30
7218;DHT22;3650;53.580;10.094;2022-11-15T08:30:27;9.70;95.20
7218;DHT22;3650;53.580;10.094;2022-11-15T08:32:57;9.70;95.20
7218;DHT22;3650;53.580;10.094;2022-11-15T08:35:24;9.70;95.30
7218;DHT22;3650;53.580;10.094;2022-11-15T08:37:52;9.70;95.30
7218;DHT22;3650;53.580;10.094;2022-11-15T08:40:20;9.70;95.40
7218;DHT22;3650;53.580;10.094;2022-11-15T08:42:47;9.80;95.50
7218;DHT22;3650;53.580;10.094;2022-11-15T08:45:14;9.80;95.50
7218;DHT22;3650;53.580;10.094;2022-11-15T08:47:41;9.80;95.50
7218;DHT22;3650;53.580;10.094;2022-11-15T08:50:09;9.80;95.50
7218;DHT22;3650;53.580;10.094;2022-11-15T08:52:36;9.80;95.50
7218;DHT22;3650;53.580;10.094;2022-11-15T08:55:03;9.90;95.50
7218;DHT22;3650;53.580;10.094;2022-11-15T08:57:37;9.80;95.40
7218;DHT22;3650;53.580;10.094;2022-11-15T09:00:04;9.90;95.30
7218;DHT22;3650;53.580;10.094;2022-11-15T09:02:31;9.90;95.20
7218;DHT22;3650;53.580;10.094;2022-11-15T09:04:58;9.90;95.10
7218;DHT22;3650;53.580;10.094;2022-11-15T09:07:26;9.90;95.10
7218;DHT22;3650;53.580;10.094;2022-11-15T09:09:55;9.90;95.00
7218;DHT22;3650;53.580;10.094;2022-11-15T09:12:21;9.90;95.00
7218;DHT22;3650;53.580;10.094;2022-11-15T09:14:48;9.90;95.00
7218;DHT22;3650;53.580;10.094;2022-11-15T09:17:15;10.00;94.50
7218;DHT22;3650;53.580;10.094;2022-11-15T09:19:42;10.00;94.50
7218;DHT22;3650;53.580;10.094;2022-11-15T09:22:09;10.00;94.60
7218;DHT22;3650;53.580;10.094;2022-11-15T09:24:37;10.00;94.70
7218;DHT22;3650;53.580;10.094;2022-11-15T09:27:04;10.10;95.10
7218;DHT22;3650;53.580;10.094;2022-11-15T09:29:30;10.00;94.70
7218;DHT22;3650;53.580;10.094;2022-11-15T09:31:57;10.10;94.60
7218;DHT22;3650;53.580;10.094;2022-11-15T09:34:24;10.10;94.60
7218;DHT22;3650;53.580;10.094;2022-11-15T09:36:56;10.10;94.60
7218;DHT22;3650;53.580;10.094;2022-11-15T09:39:23;10.10;94.60
7218;DHT22;3650;53.580;10.094;2022-11-15T09:42:09;10.20;94.80
7218;DHT22;3650;53.580;10.094;2022-11-15T09:44:47;10.20;94.80
7218;DHT22;3650;53.580;10.094;2022-11-15T09:47:39;10.20;94.90
7218;DHT22;3650;53.580;10.094;2022-11-15T09:50:20;10.20;95.00
7218;DHT22;3650;53.580;10.094;2022-11-15T09:52:55;10.20;95.10
7218;DHT22;3650;53.580;10.094;2022-11-15T09:55:32;10.30;95.10
7218;DHT22;3650;53.580;10.094;2022-11-15T09:58:05;10.30;95.10
7218;DHT22;3650;53.580;10.094;2022-11-15T10:00:38;10.40;95.10
7218;DHT22;3650;53.580;10.094;2022-11-15T10:03:18;10.40;95.10
7218;DHT22;3650;53.580;10.094;2022-11-15T10:05:48;10.50;95.20
7218;DHT22;3650;53.580;10.094;2022-11-15T10:08:31;10.40;95.10
7218;DHT22;3650;53.580;10.094;2022-11-15T10:11:01;10.50;95.20
7218;DHT22;3650;53.580;10.094;2022-11-15T10:13:34;10.50;95.50
7218;DHT22;3650;53.580;10.094;2022-11-15T10:16:13;10.60;95.20
7218;DHT22;3650;53.580;10.094;2022-11-15T10:18:49;10.60;95.20
7218;DHT22;3650;53.580;10.094;2022-11-15T10:21:23;10.60;95.40
7218;DHT22;3650;53.580;10.094;2022-11-15T10:23:50;10.70;95.50
7218;DHT22;3650;53.580;10.094;2022-11-15T10:26:19;10.70;95.50
7218;DHT22;3650;53.580;10.094;2022-11-15T10:28:47;10.70;95.50
7218;DHT22;3650;53.580;10.094;2022-11-15T10:31:24;10.80;95.60
7218;DHT22;3650;53.580;10.094;2022-11-15T10:33:53;10.80;96.00
7218;DHT22;3650;53.580;10.094;2022-11-15T10:36:24;10.80;95.60
7218;DHT22;3650;53.580;10.094;2022-11-15T10:38:55;10.90;95.70
7218;DHT22;3650;53.580;10.094;2022-11-15T10:41:29;10.90;95.80
7218;DHT22;3650;53.580;10.094;2022-11-15T10:44:20;10.90;95.70
7218;DHT22;3650;53.580;10.094;2022-11-15T10:46:50;10.90;95.80
7218;DHT22;3650;53.580;10.094;2022-11-15T10:49:30;11.00;95.80
7218;DHT22;3650;53.580;10.094;2022-11-15T10:52:00;11.00;95.80
7218;DHT22;3650;53.580;10.094;2022-11-15T10:54:29;11.10;95.80
7218;DHT22;3650;53.580;10.094;2022-11-15T10:56:59;11.10;95.80
7218;DHT22;3650;53.580;10.094;2022-11-15T10:59:30;11.10;95.80
7218;DHT22;3650;53.580;10.094;2022-11-15T11:01:58;11.10;95.70
7218;DHT22;3650;53.580;10.094;2022-11-15T11:04:24;11.10;95.70
7218;DHT22;3650;53.580;10.094;2022-11-15T11:06:53;11.20;95.70
7218;DHT22;3650;53.580;10.094;2022-11-15T11:09:30;11.20;95.70
7218;DHT22;3650;53.580;10.094;2022-11-15T11:11:57;11.20;95.60
7218;DHT22;3650;53.580;10.094;2022-11-15T11:14:26;11.20;95.60
7218;DHT22;3650;53.580;10.094;2022-11-15T11:17:00;11.30;95.60
7218;DHT22;3650;53.580;10.094;2022-11-15T11:19:41;11.30;95.60
7218;DHT22;3650;53.580;10.094;2022-11-15T11:22:21;11.30;95.60
7218;DHT22;3650;53.580;10.094;2022-11-15T11:24:56;11.30;95.60
7218;DHT22;3650;53.580;10.094;2022-11-15T11:27:36;11.40;95.70
7218;DHT22;3650;53.580;10.094;2022-11-15T11:30:09;11.40;95.70
7218;DHT22;3650;53.580;10.094;2022-11-15T11:33:01;11.40;96.00
7218;DHT22;3650;53.580;10.094;2022-11-15T11:35:32;11.40;95.70
7218;DHT22;3650;53.580;10.094;2022-11-15T11:38:17;11.50;95.70
7218;DHT22;3650;53.580;10.094;2022-11-15T11:40:57;11.50;95.60
7218;DHT22;3650;53.580;10.094;2022-11-15T11:43:34;11.50;95.60
7218;DHT22;3650;53.580;10.094;2022-11-15T11:46:28;11.50;95.50
7218;DHT22;3650;53.580;10.094;2022-11-15T11:49:04;11.50;95.50
7218;DHT22;3650;53.580;10.094;2022-11-15T11:51:38;11.60;95.60
7218;DHT22;3650;53.580;10.094;2022-11-15T11:54:12;11.60;95.70
7218;DHT22;3650;53.580;10.094;2022-11-15T11:56:41;11.60;95.70
7218;DHT22;3650;53.580;10.094;2022-11-15T11:59:19;11.60;95.60
7218;DHT22;3650;53.580;10.094;2022-11-15T12:01:46;11.60;95.60
7218;DHT22;3650;53.580;10.094;2022-11-15T12:04:18;11.60;95.50
7218;DHT22;3650;53.580;10.094;2022-11-15T12:06:50;11.70;95.90
7218;DHT22;3650;53.580;10.094;2022-11-15T12:09:21;11.70;95.50
7218;DHT22;3650;53.580;10.094;2022-11-15T12:11:54;11.70;95.50
7218;DHT22;3650;53.580;10.094;2022-11-15T12:14:28;11.70;95.50
7218;DHT22;3650;53.580;10.094;2022-11-15T12:16:57;11.70;95.50
7218;DHT22;3650;53.580;10.094;2022-11-15T12:19:25;11.70;95.50
7218;DHT22;3650;53.580;10.094;2022-11-15T12:21:59;11.80;95.50
7218;DHT22;3650;53.580;10.094;2022-11-15T12:24:29;11.80;95.60
7218;DHT22;3650;53.580;10.094;2022-11-15T12:27:01;11.80;95.50
7218;DHT22;3650;53.580;10.094;2022-11-15T12:29:35;11.80;95.90
7218;DHT22;3650;53.580;10.094;2022-11-15T12:32:03;11.80;95.50
7218;DHT22;3650;53.580;10.094;2022-11-15T12:34:40;11.90;95.60
7218;DHT22;3650;53.580;10.094;2022-11-15T12:37:34;11.90;95.60
7218;DHT22;3650;53.580;10.094;2022-11-15T12:40:18;11.90;95.60
7218;DHT22;3650;53.580;10.094;2022-11-15T12:45:40;12.00;95.60
7218;DHT22;3650;53.580;10.094;2022-11-15T12:51:13;12.00;95.60
7218;DHT22;3650;53.580;10.094;2022-11-15T12:53:39;12.00;95.60
7218;DHT22;3650;53.580;10.094;2022-11-15T12:56:21;12.00;95.60
7218;DHT22;3650;53.580;10.094;2022-11-15T12:58:51;12.10;95.60
7218;DHT22;3650;53.580;10.094;2022-11-15T13:01:56;12.00;95.50
7218;DHT22;3650;53.580;10.094;2022-11-15T13:04:29;12.10;95.40
7218;DHT22;3650;53.580;10.094;2022-11-15T13:07:00;12.10;95.30
7218;DHT22;3650;53.580;10.094;2022-11-15T13:09:53;12.10;95.20
7218;DHT22;3650;53.580;10.094;2022-11-15T13:12:49;12.10;95.20
7218;DHT22;3650;53.580;10.094;2022-11-15T13:15:51;12.10;95.10
7218;DHT22;3650;53.580;10.094;2022-11-15T13:18:38;12.10;95.10
7218;DHT22;3650;53.580;10.094;2022-11-15T13:21:18;12.20;95.10
7218;DHT22;3650;53.580;10.094;2022-11-15T13:24:09;12.20;95.10
7218;DHT22;3650;53.580;10.094;2022-11-15T13:26:38;12.20;95.10
7218;DHT22;3650;53.580;10.094;2022-11-15T13:29:15;12.20;95.10
7218;DHT22;3650;53.580;10.094;2022-11-15T13:31:43;12.20;95.10
7218;DHT22;3650;53.580;10.094;2022-11-15T13:34:25;12.20;95.10
7218;DHT22;3650;53.580;10.094;2022-11-15T13:36:52;12.20;95.10
7218;DHT22;3650;53.580;10.094;2022-11-15T13:39:28;12.20;95.10
7218;DHT22;3650;53.580;10.094;2022-11-15T13:41:55;12.30;95.20
7218;DHT22;3650;53.580;10.094;2022-11-15T13:44:24;12.20;95.30
7218;DHT22;3650;53.580;10.094;2022-11-15T13:47:01;12.30;95.30
7218;DHT22;3650;53.580;10.094;2022-11-15T13:49:29;12.30;95.30
7218;DHT22;3650;53.580;10.094;2022-11-15T13:51:56;12.20;95.20
7218;DHT22;3650;53.580;10.094;2022-11-15T13:54:27;12.30;95.30
7218;DHT22;3650;53.580;10.094;2022-11-15T13:56:58;12.30;95.30
7218;DHT22;3650;53.580;10.094;2022-11-15T13:59:28;12.30;95.30
7218;DHT22;3650;53.580;10.094;2022-11-15T14:01:57;12.30;95.30
7218;DHT22;3650;53.580;10.094;2022-11-15T14:04:27;12.30;95.30
7218;DHT22;3650;53.580;10.094;2022-11-15T14:06:59;12.30;95.40
7218;DHT22;3650;53.580;10.094;2022-11-15T14:09:36;12.30;95.40
7218;DHT22;3650;53.580;10.094;2022-11-15T14:12:22;12.30;95.30
7218;DHT22;3650;53.580;10.094;2022-11-15T14:14:49;12.30;95.30
7218;DHT22;3650;53.580;10.094;2022-11-15T14:17:20;12.40;95.30
7218;DHT22;3650;53.580;10.094;2022-11-15T14:19:49;12.40;95.30
7218;DHT22;3650;53.580;10.094;2022-11-15T14:22:19;12.40;95.60
7218;DHT22;3650;53.580;10.094;2022-11-15T14:25:17;12.40;95.20
7218;DHT22;3650;53.580;10.094;2022-11-15T14:28:07;12.40;95.20
7218;DHT22;3650;53.580;10.094;2022-11-15T14:30:33;12.40;95.20
7218;DHT22;3650;53.580;10.094;2022-11-15T14:32:59;12.40;95.20
7218;DHT22;3650;53.580;10.094;2022-11-15T14:35:26;12.40;95.20
7218;DHT22;3650;53.580;10.094;2022-11-15T14:37:53;12.40;95.30
7218;DHT22;3650;53.580;10.094;2022-11-15T14:40:21;12.40;95.20
7218;DHT22;3650;53.580;10.094;2022-11-15T14:42:49;12.40;95.20
7218;DHT22;3650;53.580;10.094;2022-11-15T14:45:17;12.40;95.20
7218;DHT22;3650;53.580;10.094;2022-11-15T14:47:45;12.40;95.10
7218;DHT22;3650;53.580;10.094;2022-11-15T14:50:13;12.40;95.20
7218;DHT22;3650;53.580;10.094;2022-11-15T14:52:40;12.40;95.10
7218;DHT22;3650;53.580;10.094;2022-11-15T14:55:17;12.40;95.10
7218;DHT22;3650;53.580;10.094;2022-11-15T14:57:45;12.40;95.00
7218;DHT22;3650;53.580;10.094;2022-11-15T15:00:14;12.40;94.90
7218;DHT22;3650;53.580;10.094;2022-11-15T15:02:42;12.40;94.90
7218;DHT22;3650;53.580;10.094;2022-11-15T15:05:18;12.40;94.90
7218;DHT22;3650;53.580;10.094;2022-11-15T15:07:45;12.40;94.80
7218;DHT22;3650;53.580;10.094;2022-11-15T15:10:13;12.40;94.80
7218;DHT22;3650;53.580;10.094;2022-11-15T15:12:40;12.40;94.80
7218;DHT22;3650;53.580;10.094;2022-11-15T15:15:12;12.40;94.80
7218;DHT22;3650;53.580;10.094;2022-11-15T15:17:40;12.40;94.80
7218;DHT22;3650;53.580;10.094;2022-11-15T15:20:08;12.40;94.80
7218;DHT22;3650;53.580;10.094;2022-11-15T15:22:37;12.40;94.70
7218;DHT22;3650;53.580;10.094;2022-11-15T15:25:19;12.40;94.70
7218;DHT22;3650;53.580;10.094;2022-11-15T15:27:46;12.40;94.70
7218;DHT22;3650;53.580;10.094;2022-11-15T15:30:13;12.40;94.80
7218;DHT22;3650;53.580;10.094;2022-11-15T15:32:40;12.40;95.10
7218;DHT22;3650;53.580;10.094;2022-11-15T15:35:10;12.30;94.70
7218;DHT22;3650;53.580;10.094;2022-11-15T15:37:38;12.30;94.70
7218;DHT22;3650;53.580;10.094;2022-11-15T15:40:11;12.30;94.70
7218;DHT22;3650;53.580;10.094;2022-11-15T15:42:39;12.30;94.70
7218;DHT22;3650;53.580;10.094;2022-11-15T15:45:07;12.30;94.70
7218;DHT22;3650;53.580;10.094;2022-11-15T15:47:34;12.30;94.70
7218;DHT22;3650;53.580;10.094;2022-11-15T15:50:01;12.30;94.70
7218;DHT22;3650;53.580;10.094;2022-11-15T15:52:28;12.30;94.70
7218;DHT22;3650;53.580;10.094;2022-11-15T15:54:56;12.30;94.80
7218;DHT22;3650;53.580;10.094;2022-11-15T15:57:22;12.30;94.80
7218;DHT22;3650;53.580;10.094;2022-11-15T15:59:49;12.30;94.80
7218;DHT22;3650;53.580;10.094;2022-11-15T16:02:16;12.20;94.70
7218;DHT22;3650;53.580;10.094;2022-11-15T16:04:42;12.20;94.70
7218;DHT22;3650;53.580;10.094;2022-11-15T16:07:16;12.20;94.70
7218;DHT22;3650;53.580;10.094;2022-11-15T16:09:44;12.20;94.80
7218;DHT22;3650;53.580;10.094;2022-11-15T16:12:32;12.20;94.80
7218;DHT22;3650;53.580;10.094;2022-11-15T16:14:59;12.20;94.90
7218;DHT22;3650;53.580;10.094;2022-11-15T16:17:30;12.20;94.90
7218;DHT22;3650;53.580;10.094;2022-11-15T16:19:57;12.10;94.90
7218;DHT22;3650;53.580;10.094;2022-11-15T16:22:23;12.10;95.00
7218;DHT22;3650;53.580;10.094;2022-11-15T16:24:50;12.10;95.00
7218;DHT22;3650;53.580;10.094;2022-11-15T16:27:19;12.10;95.10